createdAt,value
2023-04-04T00:00:45.124Z,1.20
2023-04-04T00:03:12.192Z,1.10
2023-04-04T00:05:39.678Z,1.10
2023-04-04T00:08:06.719Z,1.10
2023-04-04T00:10:33.710Z,1.10
2023-04-04T00:13:00.717Z,1.00
2023-04-04T00:15:27.652Z,0.90
2023-04-04T00:17:54.712Z,0.80
2023-04-04T00:20:21.749Z,0.70
2023-04-04T00:22:48.740Z,0.70
2023-04-04T00:25:15.840Z,0.70
2023-04-04T00:27:42.812Z,0.80
2023-04-04T00:30:10.682Z,0.80
2023-04-04T00:32:37.903Z,0.80
2023-04-04T00:35:05.199Z,0.80
2023-04-04T00:37:32.105Z,0.80
2023-04-04T00:39:58.996Z,0.80
2023-04-04T00:42:26.254Z,0.70
2023-04-04T00:44:53.603Z,0.70
2023-04-04T00:47:26.192Z,0.70
2023-04-04T00:49:53.220Z,0.60
2023-04-04T00:52:20.175Z,0.50
2023-04-04T00:54:47.264Z,0.50
2023-04-04T00:57:14.511Z,0.50
2023-04-04T00:59:42.025Z,0.50
2023-04-04T01:02:09.382Z,0.50
2023-04-04T01:04:36.541Z,0.50
2023-04-04T01:07:04.492Z,0.50
2023-04-04T01:09:31.955Z,0.40
2023-04-04T01:11:59.181Z,0.40
2023-04-04T01:14:26.102Z,0.40
2023-04-04T01:16:53.791Z,0.40
2023-04-04T01:19:47.107Z,0.30
2023-04-04T01:22:16.032Z,0.10
2023-04-04T01:24:45.217Z,0.00
2023-04-04T01:27:12.105Z,-0.10
2023-04-04T01:29:39.262Z,-0.20
2023-04-04T01:32:16.112Z,-0.20
2023-04-04T01:35:12.981Z,-0.10
2023-04-04T01:38:20.201Z,0.00
2023-04-04T01:40:50.198Z,0.10
2023-04-04T01:43:17.761Z,0.00
2023-04-04T01:45:45.078Z,0.00
2023-04-04T01:48:12.319Z,0.00
2023-04-04T01:50:39.465Z,0.00
2023-04-04T01:53:06.665Z,0.00
2023-04-04T01:55:33.541Z,-0.10
2023-04-04T01:58:00.558Z,-0.20
2023-04-04T02:00:27.795Z,-0.20
2023-04-04T02:02:54.908Z,-0.30
2023-04-04T02:05:22.334Z,-0.30
2023-04-04T02:07:50.803Z,-0.40
2023-04-04T02:10:18.357Z,-0.50
2023-04-04T02:12:46.090Z,-0.60
2023-04-04T02:15:13.264Z,-0.70
2023-04-04T02:17:40.544Z,-0.80
2023-04-04T02:20:09.296Z,-0.90
2023-04-04T02:22:36.478Z,-1.00
2023-04-04T02:25:03.537Z,-1.10
2023-04-04T02:27:30.475Z,-1.10
2023-04-04T02:29:57.593Z,-1.20
2023-04-04T02:32:24.861Z,-1.30
2023-04-04T02:34:51.857Z,-1.20
2023-04-04T02:37:18.924Z,-1.20
2023-04-04T02:39:46.060Z,-1.20
2023-04-04T02:42:12.995Z,-1.30
2023-04-04T02:44:39.950Z,-1.30
2023-04-04T02:47:07.841Z,-1.30
2023-04-04T02:49:34.733Z,-1.30
2023-04-04T02:52:01.839Z,-1.40
2023-04-04T02:54:28.987Z,-1.60
2023-04-04T02:56:56.051Z,-1.60
2023-04-04T02:59:23.122Z,-1.70
2023-04-04T03:01:50.173Z,-1.70
2023-04-04T03:04:19.553Z,-1.70
2023-04-04T03:06:49.590Z,-1.70
2023-04-04T03:09:17.321Z,-1.70
2023-04-04T03:11:44.498Z,-1.70
2023-04-04T03:14:12.177Z,-1.80
2023-04-04T03:16:40.131Z,-1.90
2023-04-04T03:19:10.670Z,-2.00
2023-04-04T03:21:39.849Z,-1.90
2023-04-04T03:24:07.092Z,-2.00
2023-04-04T03:26:34.049Z,-2.00
2023-04-04T03:29:01.123Z,-2.10
2023-04-04T03:31:39.298Z,-2.10
2023-04-04T03:34:06.246Z,-2.10
2023-04-04T03:36:33.199Z,-2.10
2023-04-04T03:39:01.662Z,-2.20
2023-04-04T03:41:28.813Z,-2.20
2023-04-04T03:43:55.827Z,-2.30
2023-04-04T03:46:23.844Z,-2.40
2023-04-04T03:48:51.097Z,-2.40
2023-04-04T03:51:27.523Z,-2.40
2023-04-04T03:53:54.641Z,-2.40
2023-04-04T03:56:21.718Z,-2.50
2023-04-04T03:58:48.741Z,-2.50
2023-04-04T04:01:15.759Z,-2.50
2023-04-04T04:03:42.752Z,-2.50
2023-04-04T04:06:09.765Z,-2.60
2023-04-04T04:08:36.791Z,-2.60
2023-04-04T04:11:07.042Z,-2.60
2023-04-04T04:13:38.845Z,-2.50
2023-04-04T04:16:06.710Z,-2.50
2023-04-04T04:18:33.781Z,-2.30
2023-04-04T04:21:02.723Z,-2.30
2023-04-04T04:23:29.987Z,-2.40
2023-04-04T04:25:57.169Z,-2.50
2023-04-04T04:28:33.251Z,-2.50
2023-04-04T04:31:08.829Z,-2.60
2023-04-04T04:33:36.333Z,-2.60
2023-04-04T04:36:07.484Z,-2.60
2023-04-04T04:38:34.509Z,-2.70
2023-04-04T04:41:02.205Z,-2.60
2023-04-04T04:43:29.168Z,-2.70
2023-04-04T04:45:57.185Z,-2.70
2023-04-04T04:48:24.070Z,-2.70
2023-04-04T04:50:51.388Z,-2.70
2023-04-04T04:53:18.346Z,-2.60
2023-04-04T04:55:46.675Z,-2.40
2023-04-04T04:58:14.383Z,-2.20
2023-04-04T05:00:42.353Z,-2.10
2023-04-04T05:03:09.694Z,-1.90
2023-04-04T05:05:36.970Z,-1.80
2023-04-04T05:08:04.978Z,-1.70
2023-04-04T05:10:32.100Z,-1.50
2023-04-04T05:12:59.010Z,-1.40
2023-04-04T05:15:26.340Z,-1.30
2023-04-04T05:17:53.853Z,-1.20
2023-04-04T05:20:20.981Z,-1.20
2023-04-04T05:22:49.647Z,-1.10
2023-04-04T05:25:20.543Z,-1.00
2023-04-04T05:27:48.840Z,-1.00
2023-04-04T05:30:19.497Z,-0.90
2023-04-04T05:32:46.602Z,-0.90
2023-04-04T05:35:13.780Z,-0.70
2023-04-04T05:37:41.017Z,-0.50
2023-04-04T05:40:10.295Z,-0.30
2023-04-04T05:42:39.904Z,0.00
2023-04-04T05:45:07.845Z,0.50
2023-04-04T05:47:34.926Z,1.10
2023-04-04T05:50:02.152Z,1.60
2023-04-04T05:52:29.156Z,1.90
2023-04-04T05:54:56.105Z,1.90
2023-04-04T05:57:24.237Z,2.00
2023-04-04T05:59:52.575Z,2.10
2023-04-04T06:02:20.083Z,2.30
2023-04-04T06:04:47.241Z,2.30
2023-04-04T06:07:14.388Z,2.20
2023-04-04T06:09:41.358Z,2.00
2023-04-04T06:12:09.426Z,1.80
2023-04-04T06:14:39.480Z,1.70
2023-04-04T06:17:07.992Z,1.70
2023-04-04T06:19:34.908Z,1.50
2023-04-04T06:22:01.898Z,1.40
2023-04-04T06:24:28.782Z,1.50
2023-04-04T06:26:55.937Z,1.60
2023-04-04T06:29:22.870Z,1.70
2023-04-04T06:31:50.494Z,1.90
2023-04-04T06:34:17.523Z,2.00
2023-04-04T06:36:45.404Z,2.20
2023-04-04T06:39:13.655Z,2.50
2023-04-04T06:41:40.944Z,3.00
2023-04-04T06:44:07.955Z,3.50
2023-04-04T06:46:40.530Z,4.10
2023-04-04T06:49:08.412Z,4.60
2023-04-04T06:51:35.490Z,5.20
2023-04-04T06:54:02.857Z,5.40
2023-04-04T06:56:29.882Z,5.50
2023-04-04T06:58:57.073Z,5.40
2023-04-04T07:01:24.201Z,5.50
2023-04-04T07:03:56.686Z,5.80
2023-04-04T07:06:25.972Z,6.30
2023-04-04T07:08:54.157Z,6.60
2023-04-04T07:11:23.866Z,6.90
2023-04-04T07:13:50.955Z,7.20
2023-04-04T07:16:18.120Z,7.60
2023-04-04T07:18:45.250Z,7.80
2023-04-04T07:21:13.953Z,8.40
2023-04-04T07:23:40.910Z,9.10
2023-04-04T07:26:10.099Z,9.30
2023-04-04T07:28:37.085Z,9.50
2023-04-04T07:31:04.241Z,9.30
2023-04-04T07:33:31.428Z,9.20
2023-04-04T07:35:58.402Z,9.20
2023-04-04T07:38:25.436Z,9.50
2023-04-04T07:40:52.412Z,10.10
2023-04-04T07:43:19.361Z,10.00
2023-04-04T07:45:46.886Z,10.30
2023-04-04T07:48:13.904Z,10.70
2023-04-04T07:50:40.984Z,10.10
2023-04-04T07:53:08.237Z,10.60
2023-04-04T07:55:35.084Z,10.50
2023-04-04T07:58:02.609Z,11.10
2023-04-04T08:00:29.557Z,11.70
2023-04-04T08:02:59.295Z,12.50
2023-04-04T08:05:26.736Z,13.60
2023-04-04T08:07:53.788Z,13.50
2023-04-04T08:10:22.038Z,13.90
2023-04-04T08:12:49.567Z,14.10
2023-04-04T08:15:16.681Z,13.50
2023-04-04T08:17:43.806Z,14.00
2023-04-04T08:20:11.681Z,14.00
2023-04-04T08:22:40.502Z,12.80
2023-04-04T08:25:09.186Z,12.70
2023-04-04T08:27:36.280Z,12.60
2023-04-04T08:30:04.310Z,13.00
2023-04-04T08:32:32.322Z,13.20
2023-04-04T08:34:59.494Z,13.10
2023-04-04T08:37:26.468Z,12.50
2023-04-04T08:39:53.949Z,11.70
2023-04-04T08:42:21.560Z,12.10
2023-04-04T08:44:52.995Z,12.70
2023-04-04T08:47:21.624Z,12.80
2023-04-04T08:49:50.659Z,12.20
2023-04-04T08:52:20.419Z,11.20
2023-04-04T08:54:48.319Z,12.00
2023-04-04T08:57:15.286Z,13.00
2023-04-04T08:59:42.669Z,13.60
2023-04-04T09:02:29.677Z,12.40
2023-04-04T09:05:06.247Z,11.80
2023-04-04T09:07:36.448Z,11.80
2023-04-04T09:10:05.598Z,11.50
2023-04-04T09:12:36.303Z,11.30
2023-04-04T09:15:04.037Z,11.10
2023-04-04T09:17:31.207Z,10.80
2023-04-04T09:20:05.534Z,10.90
2023-04-04T09:22:32.863Z,10.40
2023-04-04T09:24:59.819Z,10.30
2023-04-04T09:27:27.241Z,10.00
2023-04-04T09:29:54.223Z,10.10
2023-04-04T09:32:23.407Z,10.10
2023-04-04T09:34:50.719Z,10.30
2023-04-04T09:37:18.518Z,10.70
2023-04-04T09:39:46.389Z,11.50
2023-04-04T09:42:13.789Z,10.60
2023-04-04T09:44:40.787Z,11.20
2023-04-04T09:50:01.585Z,11.60
2023-04-04T09:52:33.980Z,11.50
2023-04-04T09:55:02.385Z,11.40
2023-04-04T09:57:34.621Z,10.90
2023-04-04T10:00:04.316Z,10.20
2023-04-04T10:02:31.655Z,9.20
2023-04-04T10:05:06.054Z,8.70
2023-04-04T10:07:33.902Z,9.00
2023-04-04T10:10:09.440Z,9.20
2023-04-04T10:12:39.662Z,9.20
2023-04-04T10:15:08.882Z,9.20
2023-04-04T10:17:41.077Z,9.50
2023-04-04T10:20:09.935Z,10.20
2023-04-04T10:22:38.295Z,10.50
2023-04-04T10:25:06.131Z,10.70
2023-04-04T10:27:34.363Z,10.10
2023-04-04T10:30:01.826Z,9.10
2023-04-04T10:32:57.003Z,9.00
2023-04-04T10:35:25.697Z,9.10
2023-04-04T10:38:05.420Z,9.20
2023-04-04T10:40:36.179Z,9.70
2023-04-04T10:43:04.660Z,9.30
2023-04-04T10:45:39.297Z,9.10
2023-04-04T10:48:10.535Z,9.10
2023-04-04T10:50:39.490Z,9.00
2023-04-04T10:53:07.842Z,8.70
2023-04-04T10:55:37.543Z,9.00
2023-04-04T10:58:05.798Z,9.30
2023-04-04T11:00:33.021Z,9.50
2023-04-04T11:03:02.627Z,9.30
2023-04-04T11:05:34.645Z,8.70
2023-04-04T11:08:09.030Z,8.70
2023-04-04T11:10:43.416Z,8.80
2023-04-04T11:13:22.614Z,8.70
2023-04-04T11:16:00.993Z,9.40
2023-04-04T11:19:00.218Z,10.10
2023-04-04T11:21:32.635Z,10.20
2023-04-04T11:24:20.006Z,10.10
2023-04-04T11:26:47.599Z,8.90
2023-04-04T11:29:22.604Z,8.50
2023-04-04T11:31:50.943Z,8.80
2023-04-04T11:34:32.396Z,8.90
2023-04-04T11:37:02.076Z,8.90
2023-04-04T11:39:33.779Z,8.60
2023-04-04T11:42:08.922Z,8.30
2023-04-04T11:45:02.263Z,8.40
2023-04-04T11:47:30.859Z,8.50
2023-04-04T11:50:00.634Z,8.40
2023-04-04T11:52:34.002Z,8.50
2023-04-04T11:55:01.384Z,8.80
2023-04-04T11:57:28.433Z,8.80
2023-04-04T11:59:57.802Z,9.00
2023-04-04T12:02:34.482Z,9.30
2023-04-04T12:05:01.964Z,9.40
2023-04-04T12:07:29.808Z,9.00
2023-04-04T12:09:57.879Z,8.80
2023-04-04T12:12:26.371Z,8.70
2023-04-04T12:15:00.217Z,8.80
2023-04-04T12:17:34.747Z,9.10
2023-04-04T12:20:02.315Z,9.50
2023-04-04T12:22:35.184Z,9.50
2023-04-04T12:25:02.260Z,9.10
2023-04-04T12:27:30.165Z,8.50
2023-04-04T12:29:58.213Z,8.40
2023-04-04T12:32:25.878Z,8.40
2023-04-04T12:34:53.371Z,8.30
2023-04-04T12:37:22.855Z,8.30
2023-04-04T12:39:51.239Z,8.60
2023-04-04T12:42:25.600Z,8.70
2023-04-04T12:44:54.784Z,8.40
2023-04-04T12:47:24.534Z,8.20
2023-04-04T12:49:54.946Z,7.90
2023-04-04T12:52:23.507Z,7.90
2023-04-04T12:55:06.758Z,8.10
2023-04-04T12:57:36.121Z,8.00
2023-04-04T13:00:06.872Z,8.00
2023-04-04T13:02:36.414Z,8.10
2023-04-04T13:05:04.132Z,8.20
2023-04-04T13:07:33.952Z,8.30
2023-04-04T13:10:04.754Z,8.10
2023-04-04T13:13:08.517Z,8.00
2023-04-04T13:15:55.109Z,7.70
2023-04-04T13:18:25.133Z,7.80
2023-04-04T13:20:53.682Z,7.90
2023-04-04T13:23:21.742Z,8.00
2023-04-04T13:25:48.920Z,8.10
2023-04-04T13:28:15.966Z,8.10
2023-04-04T13:30:51.430Z,8.00
2023-04-04T13:33:18.969Z,8.00
2023-04-04T13:35:46.674Z,7.90
2023-04-04T13:38:13.853Z,7.80
2023-04-04T13:40:41.313Z,7.80
2023-04-04T13:43:11.571Z,7.90
2023-04-04T13:45:39.487Z,8.00
2023-04-04T13:48:06.831Z,8.10
2023-04-04T13:50:39.256Z,8.10
2023-04-04T13:53:06.263Z,8.20
2023-04-04T13:55:33.281Z,8.20
2023-04-04T13:58:00.454Z,8.00
2023-04-04T14:00:28.438Z,7.80
2023-04-04T14:02:57.228Z,7.90
2023-04-04T14:05:24.655Z,8.00
2023-04-04T14:07:51.705Z,8.20
2023-04-04T14:10:18.934Z,8.20
2023-04-04T14:12:46.352Z,8.20
2023-04-04T14:15:13.402Z,8.10
2023-04-04T14:17:40.626Z,8.20
2023-04-04T14:20:08.235Z,8.10
2023-04-04T14:22:35.521Z,8.20
2023-04-04T14:25:02.715Z,8.20
2023-04-04T14:27:29.764Z,8.20
2023-04-04T14:29:56.676Z,8.20
2023-04-04T14:32:23.752Z,8.20
2023-04-04T14:34:50.759Z,8.30
2023-04-04T14:37:17.806Z,8.40
2023-04-04T14:39:44.924Z,8.30
2023-04-04T14:42:11.864Z,8.20
2023-04-04T14:44:39.037Z,8.20
2023-04-04T14:47:06.148Z,8.20
2023-04-04T14:49:33.217Z,8.30
2023-04-04T14:52:00.108Z,8.30
2023-04-04T14:54:27.344Z,8.20
2023-04-04T14:56:54.289Z,8.20
2023-04-04T14:59:21.319Z,8.10
2023-04-04T15:01:48.378Z,8.00
2023-04-04T15:04:15.424Z,8.00
2023-04-04T15:06:43.360Z,8.10
2023-04-04T15:09:11.808Z,8.10
2023-04-04T15:11:39.699Z,8.10
2023-04-04T15:14:06.728Z,8.00
2023-04-04T15:16:35.383Z,8.10
2023-04-04T15:19:02.416Z,8.10
2023-04-04T15:21:29.564Z,8.20
2023-04-04T15:23:56.467Z,8.10
2023-04-04T15:26:23.621Z,8.10
2023-04-04T15:28:50.693Z,8.10
2023-04-04T15:31:18.140Z,8.20
2023-04-04T15:33:45.210Z,8.30
2023-04-04T15:36:12.183Z,8.40
2023-04-04T15:38:39.797Z,8.40
2023-04-04T15:41:08.864Z,8.30
2023-04-04T15:43:38.893Z,8.30
2023-04-04T15:46:06.391Z,8.30
2023-04-04T15:48:34.541Z,8.30
2023-04-04T15:51:05.214Z,8.20
2023-04-04T15:53:32.661Z,8.10
2023-04-04T15:56:00.027Z,8.10
2023-04-04T15:58:27.245Z,8.00
2023-04-04T16:00:55.787Z,8.00
2023-04-04T16:03:24.774Z,8.00
2023-04-04T16:05:51.860Z,8.10
2023-04-04T16:08:18.890Z,8.10
2023-04-04T16:10:46.036Z,8.00
2023-04-04T16:13:13.985Z,8.00
2023-04-04T16:15:41.277Z,8.10
2023-04-04T16:18:08.870Z,8.10
2023-04-04T16:20:37.206Z,8.10
2023-04-04T16:23:04.313Z,8.00
2023-04-04T16:25:31.303Z,8.00
2023-04-04T16:27:58.487Z,8.10
2023-04-04T16:30:25.606Z,8.10
2023-04-04T16:32:52.781Z,8.00
2023-04-04T16:35:19.783Z,8.00
2023-04-04T16:37:47.481Z,7.80
2023-04-04T16:40:15.518Z,7.70
2023-04-04T16:42:42.691Z,7.70
2023-04-04T16:45:11.099Z,7.70
2023-04-04T16:47:38.233Z,7.60
2023-04-04T16:50:06.313Z,7.60
2023-04-04T16:52:33.300Z,7.60
2023-04-04T16:55:00.564Z,7.60
2023-04-04T16:57:27.802Z,7.60
2023-04-04T16:59:54.989Z,7.50
2023-04-04T17:02:21.983Z,7.50
2023-04-04T17:04:49.056Z,7.50
2023-04-04T17:07:16.107Z,7.50
2023-04-04T17:09:43.230Z,7.40
2023-04-04T17:12:10.270Z,7.40
2023-04-04T17:14:37.793Z,7.40
2023-04-04T17:17:05.838Z,7.30
2023-04-04T17:19:35.246Z,7.30
2023-04-04T17:22:03.304Z,7.30
2023-04-04T17:24:30.604Z,7.30
2023-04-04T17:27:00.580Z,7.40
2023-04-04T17:29:27.657Z,7.30
2023-04-04T17:31:56.251Z,7.30
2023-04-04T17:34:23.699Z,7.20
2023-04-04T17:36:51.912Z,7.20
2023-04-04T17:39:18.936Z,7.20
2023-04-04T17:41:49.447Z,7.10
2023-04-04T17:44:17.236Z,7.10
2023-04-04T17:46:45.199Z,7.00
2023-04-04T17:49:12.977Z,7.00
2023-04-04T17:51:40.021Z,7.00
2023-04-04T17:54:07.056Z,7.00
2023-04-04T17:56:34.008Z,6.90
2023-04-04T17:59:01.058Z,6.90
2023-04-04T18:01:29.516Z,6.90
2023-04-04T18:03:57.774Z,6.80
2023-04-04T18:06:25.041Z,6.70
2023-04-04T18:08:52.040Z,6.50
2023-04-04T18:11:19.237Z,6.50
2023-04-04T18:13:46.398Z,6.50
2023-04-04T18:16:13.560Z,6.40
2023-04-04T18:18:41.842Z,6.50
2023-04-04T18:21:09.025Z,6.50
2023-04-04T18:23:36.001Z,6.50
2023-04-04T18:26:03.455Z,6.50
2023-04-04T18:28:30.407Z,6.50
2023-04-04T18:30:59.493Z,6.50
2023-04-04T18:33:27.374Z,6.50
2023-04-04T18:35:54.864Z,6.50
2023-04-04T18:38:21.999Z,6.50
2023-04-04T18:40:49.008Z,6.40
2023-04-04T18:43:16.229Z,6.50
2023-04-04T18:45:43.342Z,6.40
2023-04-04T18:48:11.984Z,6.30
2023-04-04T18:50:40.064Z,6.30
2023-04-04T18:53:07.931Z,6.20
2023-04-04T18:55:35.286Z,6.10
2023-04-04T18:58:02.380Z,6.10
2023-04-04T19:00:29.395Z,6.00
2023-04-04T19:02:57.284Z,6.00
2023-04-04T19:05:25.256Z,5.90
2023-04-04T19:07:54.473Z,5.80
2023-04-04T19:10:22.194Z,5.70
2023-04-04T19:12:50.354Z,5.70
2023-04-04T19:15:17.380Z,5.70
2023-04-04T19:17:44.393Z,5.60
2023-04-04T19:20:12.738Z,5.60
2023-04-04T19:22:39.776Z,5.50
2023-04-04T19:25:06.950Z,5.50
2023-04-04T19:27:33.967Z,5.60
2023-04-04T19:30:12.259Z,5.70
2023-04-04T19:32:39.669Z,5.60
2023-04-04T19:35:20.967Z,5.50
2023-04-04T19:37:48.066Z,5.60
2023-04-04T19:40:16.606Z,5.60
2023-04-04T19:42:43.507Z,5.70
2023-04-04T19:45:13.200Z,5.70
2023-04-04T19:47:40.352Z,5.60
2023-04-04T19:50:08.005Z,5.60
2023-04-04T19:52:36.726Z,5.60
2023-04-04T19:55:09.378Z,5.50
2023-04-04T19:57:38.082Z,5.60
2023-04-04T20:00:13.718Z,5.60
2023-04-04T20:02:51.918Z,5.50
2023-04-04T20:06:07.821Z,5.50
2023-04-04T20:08:49.015Z,5.50
2023-04-04T20:11:22.794Z,5.50
2023-04-04T20:13:50.748Z,5.50
2023-04-04T20:16:17.904Z,5.50
2023-04-04T20:18:46.492Z,5.50
2023-04-04T20:21:15.626Z,5.50
2023-04-04T20:23:47.274Z,5.50
2023-04-04T20:26:59.283Z,5.50
2023-04-04T20:29:31.578Z,5.50
2023-04-04T20:32:01.101Z,5.60
2023-04-04T20:34:47.584Z,5.50
2023-04-04T20:37:22.829Z,5.60
2023-04-04T20:40:00.324Z,5.50
2023-04-04T20:42:38.727Z,5.50
2023-04-04T20:45:35.042Z,5.50
2023-04-04T20:48:06.830Z,5.50
2023-04-04T20:50:44.120Z,5.50
2023-04-04T20:53:17.398Z,5.50
2023-04-04T20:55:44.458Z,5.50
2023-04-04T20:58:29.198Z,5.50
2023-04-04T21:00:58.330Z,5.40
2023-04-04T21:03:38.033Z,5.40
2023-04-04T21:06:16.732Z,5.40
2023-04-04T21:08:48.642Z,5.40
2023-04-04T21:11:29.246Z,5.40
2023-04-04T21:13:57.141Z,5.30
2023-04-04T21:16:27.977Z,5.30
2023-04-04T21:18:59.447Z,5.20
2023-04-04T21:21:27.370Z,5.10
2023-04-04T21:23:56.958Z,5.10
2023-04-04T21:26:35.218Z,5.10
2023-04-04T21:29:05.223Z,5.00
2023-04-04T21:31:36.401Z,4.90
2023-04-04T21:34:18.662Z,4.90
2023-04-04T21:36:46.488Z,4.80
2023-04-04T21:39:14.878Z,4.80
2023-04-04T21:41:44.270Z,4.80
2023-04-04T21:44:11.518Z,4.80
2023-04-04T21:46:40.587Z,4.80
2023-04-04T21:49:08.858Z,4.80
2023-04-04T21:51:36.489Z,4.80
2023-04-04T21:54:04.402Z,4.70
2023-04-04T21:56:31.793Z,4.70
2023-04-04T21:59:12.867Z,4.60
2023-04-04T22:01:40.835Z,4.60
2023-04-04T22:04:08.098Z,4.60
2023-04-04T22:06:35.174Z,4.60
2023-04-04T22:09:03.206Z,4.50
2023-04-04T22:11:30.181Z,4.50
2023-04-04T22:14:04.692Z,4.50
2023-04-04T22:16:32.171Z,4.50
2023-04-04T22:19:01.589Z,4.50
2023-04-04T22:21:29.862Z,4.50
2023-04-04T22:24:02.063Z,4.40
2023-04-04T22:26:32.345Z,4.40
2023-04-04T22:29:01.420Z,4.50
2023-04-04T22:31:28.915Z,4.50
2023-04-04T22:33:56.286Z,4.40
2023-04-04T22:36:24.554Z,4.40
2023-04-04T22:38:57.336Z,4.30
2023-04-04T22:41:29.358Z,4.30
2023-04-04T22:43:59.404Z,4.30
2023-04-04T22:46:29.471Z,4.20
2023-04-04T22:49:05.728Z,4.20
2023-04-04T22:51:35.218Z,4.20
2023-04-04T22:54:03.250Z,4.10
2023-04-04T22:56:30.597Z,4.10
2023-04-04T22:58:59.019Z,4.10
2023-04-04T23:01:26.310Z,4.00
2023-04-04T23:03:53.267Z,4.00
2023-04-04T23:06:20.656Z,4.00
2023-04-04T23:08:47.920Z,3.90
2023-04-04T23:11:14.890Z,3.80
2023-04-04T23:13:44.424Z,3.80
2023-04-04T23:16:11.426Z,3.70
2023-04-04T23:18:38.484Z,3.60
2023-04-04T23:21:05.671Z,3.50
2023-04-04T23:23:32.718Z,3.40
2023-04-04T23:25:59.693Z,3.30
2023-04-04T23:28:29.817Z,3.30
2023-04-04T23:30:57.256Z,3.30
2023-04-04T23:33:24.256Z,3.20
2023-04-04T23:35:51.232Z,3.10
2023-04-04T23:38:18.203Z,3.10
2023-04-04T23:40:45.127Z,3.00
2023-04-04T23:43:12.028Z,2.90
2023-04-04T23:45:40.433Z,2.90
2023-04-04T23:48:07.618Z,2.90
2023-04-04T23:50:34.655Z,2.90
2023-04-04T23:53:01.788Z,2.90
2023-04-04T23:55:28.807Z,2.80
2023-04-04T23:58:02.536Z,2.70
